Time;durP1;ratioP1;P1;durP2;ratioP2;P2;SDS_P1;SDS_P2;PMS_P1;PMS_P2;Temp;Humidity;BMP_temperature;BMP_pressure;BME280_temperature;BME280_humidity;BME280_pressure;Samples;Min_cycle;Max_cycle;Signal;HPM_P1;HPM_P2
2022/07/18 00:01:04;;;;;;;;;;;;;;;13.22;63.67;101320.38;1420065;91;20331;-80
2022/07/18 00:03:31;;;;;;;;;;;;;;;13.15;63.30;101318.42;1402929;92;20337;-79
2022/07/18 00:05:57;;;;;;;;;;;;;;;13.12;63.72;101321.36;1423160;91;20401;-80
2022/07/18 00:08:23;;;;;;;;;;;;;;;13.09;63.91;101323.84;1407964;91;20394;-80
2022/07/18 00:10:52;;;;;;;;;;;;;;;13.06;65.26;101327.62;1405610;92;20334;-79
2022/07/18 00:13:18;;;;;;;;;;;;;;;13.03;64.83;101321.73;1419108;92;20440;-80
2022/07/18 00:15:44;;;;;;;;;;;;;;;12.97;64.27;101319.64;1421276;91;20373;-79
2022/07/18 00:18:10;;;;;;;;;;;;;;;12.91;63.67;101319.72;1425749;91;20310;-79
2022/07/18 00:20:36;;;;;;;;;;;;;;;12.86;64.04;101317.50;1429923;91;20600;-79
2022/07/18 00:23:02;;;;;;;;;;;;;;;12.80;65.03;101317.20;1424826;91;20417;-79
2022/07/18 00:25:28;;;;;;;;;;;;;;;12.78;63.63;101319.18;1423041;91;20403;-79
2022/07/18 00:27:55;;;;;;;;;;;;;;;12.74;63.58;101318.59;1413496;91;20524;-79
2022/07/18 00:30:21;;;;;;;;;;;;;;;12.70;64.36;101320.36;1418615;91;20443;-78
2022/07/18 00:32:48;;;;;;;;;;;;;;;12.67;63.99;101314.84;1424195;91;20320;-79
2022/07/18 00:35:15;;;;;;;;;;;;;;;12.62;64.28;101313.91;1422880;91;20342;-78
2022/07/18 00:37:41;;;;;;;;;;;;;;;12.58;64.41;101316.52;1411479;90;20456;-78
2022/07/18 00:40:09;;;;;;;;;;;;;;;12.55;64.70;101314.14;1400554;91;20400;-79
2022/07/18 00:42:41;;;;;;;;;;;;;;;12.47;65.30;101318.46;1507380;91;20828;-80
2022/07/18 00:45:09;;;;;;;;;;;;;;;12.45;64.22;101319.91;1359462;91;20381;-80
2022/07/18 00:47:35;;;;;;;;;;;;;;;12.38;64.41;101319.63;1450954;91;20888;-79
2022/07/18 00:50:03;;;;;;;;;;;;;;;12.31;65.02;101326.45;1483850;93;20287;-80
2022/07/18 00:52:29;;;;;;;;;;;;;;;12.27;65.77;101320.25;1503450;91;20290;-80
2022/07/18 00:54:55;;;;;;;;;;;;;;;12.20;65.56;101321.29;1397732;91;20337;-79
2022/07/18 00:57:21;;;;;;;;;;;;;;;12.18;66.74;101322.73;1514321;90;20257;-79
2022/07/18 01:02:33;;;;;;;;;;;;;;;12.02;66.35;101323.73;1526743;90;20272;-80
2022/07/18 01:04:59;;;;;;;;;;;;;;;11.97;67.05;101324.65;1504005;90;20880;-79
2022/07/18 01:07:25;;;;;;;;;;;;;;;11.95;66.49;101323.94;1507577;91;20262;-79
2022/07/18 01:09:51;;;;;;;;;;;;;;;11.90;66.98;101326.98;1381625;91;20346;-79
2022/07/18 01:12:18;;;;;;;;;;;;;;;11.87;67.13;101329.06;1530632;90;20227;-79
2022/07/18 01:14:45;;;;;;;;;;;;;;;11.87;66.45;101334.38;1502796;90;20236;-80
2022/07/18 01:17:18;;;;;;;;;;;;;;;11.83;66.07;101332.94;1502235;92;20359;-80
2022/07/18 01:19:45;;;;;;;;;;;;;;;11.79;66.49;101329.69;1481855;91;20291;-79
2022/07/18 01:22:13;;;;;;;;;;;;;;;11.74;66.92;101338.06;1494837;91;20288;-79
2022/07/18 01:24:40;;;;;;;;;;;;;;;11.69;67.40;101342.92;1505408;91;20373;-79
2022/07/18 01:27:07;;;;;;;;;;;;;;;11.67;67.77;101342.20;1507188;91;20270;-78
2022/07/18 01:29:33;;;;;;;;;;;;;;;11.60;68.81;101345.05;1507680;91;20389;-78
2022/07/18 01:32:11;;;;;;;;;;;;;;;11.59;67.77;101341.19;1507126;91;20366;-78
2022/07/18 01:34:37;;;;;;;;;;;;;;;11.53;68.19;101338.58;1389369;91;20285;-78
2022/07/18 01:37:04;;;;;;;;;;;;;;;11.49;68.12;101335.84;1498457;91;20359;-78
2022/07/18 01:39:31;;;;;;;;;;;;;;;11.49;68.96;101341.14;1429515;91;20314;-79
2022/07/18 01:42:02;;;;;;;;;;;;;;;11.48;69.00;101335.50;1454684;91;20283;-79
2022/07/18 01:44:29;;;;;;;;;;;;;;;11.46;68.61;101339.59;1507547;91;20893;-78
2022/07/18 01:46:55;;;;;;;;;;;;;;;11.38;69.78;101342.55;1479663;91;20284;-78
2022/07/18 01:49:21;;;;;;;;;;;;;;;11.34;69.37;101345.95;1355959;91;20254;-78
2022/07/18 01:51:51;;;;;;;;;;;;;;;11.30;69.61;101345.34;1506074;91;20269;-78
2022/07/18 01:54:20;;;;;;;;;;;;;;;11.24;69.76;101345.87;1506035;91;20377;-79
2022/07/18 01:56:46;;;;;;;;;;;;;;;11.24;69.30;101340.56;1352307;91;20829;-78
2022/07/18 01:59:12;;;;;;;;;;;;;;;11.21;69.54;101344.80;1422795;91;20284;-78
2022/07/18 02:01:38;;;;;;;;;;;;;;;11.18;69.23;101335.79;1507916;91;20292;-78
2022/07/18 02:04:04;;;;;;;;;;;;;;;11.14;69.26;101337.03;1367545;91;20322;-78
2022/07/18 02:06:30;;;;;;;;;;;;;;;11.14;68.94;101338.84;1507790;91;20380;-80
2022/07/18 02:08:56;;;;;;;;;;;;;;;11.15;70.18;101338.70;1507724;91;20291;-80
2022/07/18 02:11:23;;;;;;;;;;;;;;;11.14;70.64;101338.36;1507829;91;20783;-80
2022/07/18 02:13:55;;;;;;;;;;;;;;;11.13;70.33;101337.14;1503856;91;20881;-79
2022/07/18 02:16:21;;;;;;;;;;;;;;;11.09;70.64;101339.22;1376943;93;20358;-79
2022/07/18 02:18:47;;;;;;;;;;;;;;;11.07;70.59;101331.87;1434194;93;20354;-79
2022/07/18 02:21:13;;;;;;;;;;;;;;;11.05;70.49;101324.56;1507817;91;20329;-80
2022/07/18 02:23:40;;;;;;;;;;;;;;;11.04;71.23;101332.13;1507835;91;20374;-80
2022/07/18 02:26:06;;;;;;;;;;;;;;;11.01;71.72;101336.37;1507839;91;20418;-79
2022/07/18 02:28:32;;;;;;;;;;;;;;;10.99;71.82;101335.64;1407383;91;20350;-79
2022/07/18 02:30:58;;;;;;;;;;;;;;;10.98;72.02;101340.11;1385159;91;20270;-79
2022/07/18 02:33:25;;;;;;;;;;;;;;;11.03;71.61;101343.70;1491262;91;20369;-79
2022/07/18 02:35:57;;;;;;;;;;;;;;;11.05;72.05;101348.41;1507734;91;20284;-79
2022/07/18 02:38:23;;;;;;;;;;;;;;;11.06;71.44;101344.78;1477435;91;20262;-79
2022/07/18 02:40:58;;;;;;;;;;;;;;;11.10;70.94;101346.19;1507836;91;20299;-79
2022/07/18 02:43:24;;;;;;;;;;;;;;;11.14;70.46;101349.44;1510586;91;20865;-79
2022/07/18 02:45:50;;;;;;;;;;;;;;;11.12;70.66;101350.88;1491789;91;20314;-79
2022/07/18 02:48:16;;;;;;;;;;;;;;;11.14;70.45;101356.90;1498635;91;20314;-80
2022/07/18 02:50:43;;;;;;;;;;;;;;;11.16;70.13;101349.64;1430351;92;20283;-79
2022/07/18 02:53:09;;;;;;;;;;;;;;;11.15;70.56;101344.00;1509681;91;20269;-78
2022/07/18 02:55:35;;;;;;;;;;;;;;;11.15;70.53;101352.44;1393587;92;20374;-78
2022/07/18 02:58:00;;;;;;;;;;;;;;;11.13;70.75;101351.23;1504892;91;20299;-80
2022/07/18 03:00:26;;;;;;;;;;;;;;;11.11;71.00;101353.19;1509715;91;20254;-78
2022/07/18 03:02:52;;;;;;;;;;;;;;;11.09;71.24;101354.28;1466273;91;20269;-79
2022/07/18 03:05:25;;;;;;;;;;;;;;;11.06;71.21;101352.72;1509793;91;20321;-79
2022/07/18 03:07:51;;;;;;;;;;;;;;;11.02;70.67;101355.28;1509770;91;20337;-79
2022/07/18 03:10:17;;;;;;;;;;;;;;;10.98;70.72;101349.87;1382244;92;20287;-79
2022/07/18 03:12:43;;;;;;;;;;;;;;;10.93;69.96;101345.43;1509711;91;20261;-79
2022/07/18 03:15:10;;;;;;;;;;;;;;;10.84;70.52;101351.84;1509727;91;20262;-79
2022/07/18 03:17:38;;;;;;;;;;;;;;;10.75;70.66;101349.95;1509595;91;20269;-79
2022/07/18 03:20:05;;;;;;;;;;;;;;;10.67;71.89;101351.06;1444188;91;20277;-79
2022/07/18 03:22:33;;;;;;;;;;;;;;;10.63;72.11;101352.30;1509630;91;20254;-79
2022/07/18 03:24:59;;;;;;;;;;;;;;;10.60;72.55;101355.20;1509627;91;20494;-79
2022/07/18 03:27:26;;;;;;;;;;;;;;;10.57;73.26;101350.16;1499496;91;20247;-79
2022/07/18 03:29:52;;;;;;;;;;;;;;;10.56;72.87;101351.97;1509812;91;20388;-79
2022/07/18 03:32:19;;;;;;;;;;;;;;;10.57;72.70;101359.42;1509797;91;20292;-79
2022/07/18 03:34:45;;;;;;;;;;;;;;;10.58;72.85;101356.63;1509801;91;20388;-78
2022/07/18 03:37:10;;;;;;;;;;;;;;;10.60;72.70;101360.00;1414741;91;20276;-79
2022/07/18 03:39:36;;;;;;;;;;;;;;;10.65;73.20;101356.99;1404891;91;20328;-79
2022/07/18 03:42:03;;;;;;;;;;;;;;;10.72;73.92;101359.48;1509685;91;20255;-79
2022/07/18 03:44:29;;;;;;;;;;;;;;;10.76;73.88;101367.55;1509645;91;20351;-79
2022/07/18 03:46:54;;;;;;;;;;;;;;;10.82;72.84;101366.20;1489297;91;21012;-79
2022/07/18 03:49:20;;;;;;;;;;;;;;;10.88;72.92;101373.64;1483100;91;20261;-79
2022/07/18 03:51:47;;;;;;;;;;;;;;;10.95;72.22;101366.85;1357170;91;20315;-79
2022/07/18 03:54:13;;;;;;;;;;;;;;;11.03;72.57;101363.09;1485575;91;20381;-80
2022/07/18 03:56:39;;;;;;;;;;;;;;;11.14;71.80;101366.17;1496098;91;20806;-79
2022/07/18 03:59:05;;;;;;;;;;;;;;;11.20;73.39;101361.68;1438325;91;20820;-79
2022/07/18 04:01:32;;;;;;;;;;;;;;;11.26;72.66;101370.92;1507780;91;20284;-79
2022/07/18 04:03:58;;;;;;;;;;;;;;;11.34;71.47;101371.61;1507587;91;20293;-79
2022/07/18 04:06:24;;;;;;;;;;;;;;;11.42;71.20;101373.11;1492135;91;20352;-79
2022/07/18 04:08:50;;;;;;;;;;;;;;;11.51;71.49;101373.67;1507639;91;20314;-80
2022/07/18 04:11:16;;;;;;;;;;;;;;;11.60;71.50;101371.56;1362211;91;20262;-79
2022/07/18 04:13:42;;;;;;;;;;;;;;;11.70;70.77;101371.11;1503146;91;20318;-80
2022/07/18 04:16:08;;;;;;;;;;;;;;;11.80;71.05;101370.34;1506347;91;20262;-80
2022/07/18 04:18:33;;;;;;;;;;;;;;;11.90;70.73;101378.70;1431426;91;20284;-80
2022/07/18 04:20:59;;;;;;;;;;;;;;;12.00;70.34;101373.92;1507693;91;20270;-81
2022/07/18 04:23:25;;;;;;;;;;;;;;;12.11;70.29;101370.70;1386248;91;20351;-80
2022/07/18 04:25:53;;;;;;;;;;;;;;;12.23;71.00;101369.25;1496848;91;20277;-79
2022/07/18 04:28:19;;;;;;;;;;;;;;;12.32;70.94;101377.26;1507555;91;20403;-79
2022/07/18 04:30:48;;;;;;;;;;;;;;;12.42;69.75;101372.80;1453306;91;20254;-79
2022/07/18 04:33:14;;;;;;;;;;;;;;;12.54;70.55;101378.82;1495055;91;20769;-79
2022/07/18 04:35:41;;;;;;;;;;;;;;;12.65;69.44;101376.05;1400811;91;20321;-78
2022/07/18 04:38:09;;;;;;;;;;;;;;;12.78;69.53;101376.30;1502221;91;20247;-78
2022/07/18 04:40:35;;;;;;;;;;;;;;;12.90;69.06;101376.50;1357466;91;20308;-79
2022/07/18 04:43:01;;;;;;;;;;;;;;;13.05;68.92;101379.08;1507675;91;20403;-79
2022/07/18 04:45:27;;;;;;;;;;;;;;;13.22;68.27;101374.03;1507376;91;20308;-80
2022/07/18 04:47:55;;;;;;;;;;;;;;;13.38;67.56;101375.66;1421523;91;20283;-78
2022/07/18 04:50:21;;;;;;;;;;;;;;;13.55;67.71;101380.70;1426343;91;20358;-78
2022/07/18 04:52:48;;;;;;;;;;;;;;;13.72;66.79;101375.13;1507554;91;20270;-78
2022/07/18 04:55:16;;;;;;;;;;;;;;;13.88;65.47;101377.20;1507757;91;20359;-79
2022/07/18 04:57:42;;;;;;;;;;;;;;;14.06;65.74;101377.25;1465424;91;20447;-79
2022/07/18 05:00:17;;;;;;;;;;;;;;;14.22;64.80;101377.47;1423267;91;20350;-79
2022/07/18 05:02:44;;;;;;;;;;;;;;;14.37;64.19;101375.13;1424664;91;20351;-78
2022/07/18 05:05:11;;;;;;;;;;;;;;;14.52;63.96;101377.66;1428993;91;20996;-78
2022/07/18 05:07:39;;;;;;;;;;;;;;;14.69;63.33;101379.16;1425306;91;20653;-78
2022/07/18 05:10:08;;;;;;;;;;;;;;;14.81;61.91;101376.11;1420112;91;20417;-79
2022/07/18 05:12:38;;;;;;;;;;;;;;;14.99;62.43;101384.60;1433975;91;21010;-79
2022/07/18 05:15:06;;;;;;;;;;;;;;;15.15;61.83;101392.75;1423310;91;20320;-78
2022/07/18 05:17:33;;;;;;;;;;;;;;;15.31;61.81;101386.22;1423951;91;20372;-79
2022/07/18 05:19:59;;;;;;;;;;;;;;;15.46;60.86;101382.99;1392894;91;20277;-77
2022/07/18 05:22:25;;;;;;;;;;;;;;;15.62;60.39;101383.08;1507644;91;20276;-78
2022/07/18 05:24:51;;;;;;;;;;;;;;;15.77;58.91;101385.55;1448300;91;20337;-78
2022/07/18 05:27:17;;;;;;;;;;;;;;;15.95;59.07;101379.30;1507702;91;20307;-84
2022/07/18 05:29:43;;;;;;;;;;;;;;;16.12;58.26;101379.72;1507748;91;20396;-84
2022/07/18 05:32:10;;;;;;;;;;;;;;;16.30;58.48;101376.94;1507735;91;20269;-85
2022/07/18 05:34:36;;;;;;;;;;;;;;;16.48;58.63;101375.48;1507749;91;20284;-87
2022/07/18 05:37:02;;;;;;;;;;;;;;;16.64;58.19;101374.19;1471861;91;20791;-87
2022/07/18 05:39:30;;;;;;;;;;;;;;;16.80;56.13;101375.23;1354215;91;20874;-90
2022/07/18 05:41:56;;;;;;;;;;;;;;;16.95;55.98;101376.78;1507807;91;20813;-88
2022/07/18 05:44:28;;;;;;;;;;;;;;;17.09;55.40;101372.94;1508002;91;20262;-87
2022/07/18 05:46:54;;;;;;;;;;;;;;;17.26;55.79;101379.13;1507568;91;20351;-88
2022/07/18 05:49:20;;;;;;;;;;;;;;;17.39;55.01;101379.10;1490131;91;20254;-87
2022/07/18 05:51:46;;;;;;;;;;;;;;;17.58;56.15;101380.08;1453571;91;20285;-88
2022/07/18 05:54:18;;;;;;;;;;;;;;;17.72;53.59;101383.88;1422831;92;21127;-89
2022/07/18 05:56:40;;;;;;;;;;;;;;;17.86;52.76;101377.84;1422556;91;20417;-87
2022/07/18 05:59:06;;;;;;;;;;;;;;;18.02;53.45;101378.31;1426297;92;20314;-87
2022/07/18 06:01:32;;;;;;;;;;;;;;;18.19;53.59;101369.70;1426583;91;20886;-87
2022/07/18 06:03:58;;;;;;;;;;;;;;;18.34;52.40;101371.95;1421980;92;20432;-89
2022/07/18 06:06:24;;;;;;;;;;;;;;;18.51;51.30;101373.22;1423296;92;20342;-87
2022/07/18 06:08:51;;;;;;;;;;;;;;;18.61;50.04;101377.83;1429075;91;20450;-88
2022/07/18 06:11:17;;;;;;;;;;;;;;;18.79;51.38;101372.20;1419878;92;20335;-87
2022/07/18 06:13:44;;;;;;;;;;;;;;;18.95;51.09;101374.78;1432491;91;20373;-87
2022/07/18 06:16:12;;;;;;;;;;;;;;;19.06;48.65;101374.35;1424214;91;20418;-87
2022/07/18 06:18:39;;;;;;;;;;;;;;;19.23;50.03;101371.03;1426534;92;20336;-87
2022/07/18 06:21:05;;;;;;;;;;;;;;;19.41;50.73;101375.23;1421513;91;20455;-86
2022/07/18 06:23:31;;;;;;;;;;;;;;;19.54;49.01;101372.75;1417664;92;20429;-88
2022/07/18 06:25:59;;;;;;;;;;;;;;;19.71;50.35;101370.25;1422110;92;20298;-87
2022/07/18 06:28:25;;;;;;;;;;;;;;;19.91;48.69;101376.39;1415161;92;20387;-87
2022/07/18 06:30:53;;;;;;;;;;;;;;;20.00;49.24;101372.09;1424973;92;20475;-87
2022/07/18 06:33:20;;;;;;;;;;;;;;;20.05;47.24;101370.17;1428930;92;20394;-87
2022/07/18 06:35:49;;;;;;;;;;;;;;;20.05;45.79;101371.52;1428053;92;20335;-87
2022/07/18 06:38:16;;;;;;;;;;;;;;;20.17;47.41;101376.76;1420698;92;20314;-86
2022/07/18 06:40:42;;;;;;;;;;;;;;;20.31;48.02;101377.73;1423590;91;20453;-88
2022/07/18 06:43:08;;;;;;;;;;;;;;;20.48;48.10;101372.48;1351348;92;20284;-88
2022/07/18 06:45:35;;;;;;;;;;;;;;;20.64;47.78;101374.11;1504283;91;20381;-88
2022/07/18 06:48:01;;;;;;;;;;;;;;;20.79;47.99;101366.50;1504283;92;20262;-88
2022/07/18 06:50:27;;;;;;;;;;;;;;;20.87;46.77;101367.72;1478132;91;20268;-88
2022/07/18 06:52:53;;;;;;;;;;;;;;;20.83;44.18;101361.04;1455517;90;20242;-88
2022/07/18 06:55:19;;;;;;;;;;;;;;;20.88;44.92;101355.92;1508886;90;20262;-87
2022/07/18 06:57:45;;;;;;;;;;;;;;;21.03;46.25;101359.39;1377940;91;20370;-88
2022/07/18 07:00:17;;;;;;;;;;;;;;;21.08;43.75;101362.83;1379384;91;20946;-88
2022/07/18 07:02:46;;;;;;;;;;;;;;;21.30;45.88;101360.95;1508150;91;20323;-87
2022/07/18 07:05:15;;;;;;;;;;;;;;;21.46;45.66;101352.58;1507997;91;20239;-87
2022/07/18 07:07:41;;;;;;;;;;;;;;;21.62;45.51;101359.02;1502920;91;20336;-87
2022/07/18 07:10:08;;;;;;;;;;;;;;;21.70;43.71;101356.69;1508053;91;20321;-87
2022/07/18 07:12:43;;;;;;;;;;;;;;;21.80;43.91;101360.36;1508039;91;20362;-88
2022/07/18 07:15:10;;;;;;;;;;;;;;;21.95;44.39;101353.48;1507171;91;20426;-86
2022/07/18 07:17:36;;;;;;;;;;;;;;;22.06;42.41;101357.78;1435825;91;20277;-87
2022/07/18 07:20:09;;;;;;;;;;;;;;;22.19;42.49;101350.84;1390557;91;20387;-87
2022/07/18 07:22:47;;;;;;;;;;;;;;;22.28;40.05;101348.27;1384297;91;20381;-86
2022/07/18 07:25:15;;;;;;;;;;;;;;;22.36;39.54;101342.70;1483409;91;20284;-87
2022/07/18 07:27:42;;;;;;;;;;;;;;;22.54;41.46;101340.77;1507918;91;20261;-87
2022/07/18 07:30:09;;;;;;;;;;;;;;;22.66;40.70;101345.03;1430340;91;20269;-87
2022/07/18 07:32:36;;;;;;;;;;;;;;;22.83;40.80;101344.12;1507846;91;20953;-87
2022/07/18 07:35:06;;;;;;;;;;;;;;;23.02;40.60;101338.44;1508033;91;20277;-88
2022/07/18 07:37:36;;;;;;;;;;;;;;;23.13;39.42;101335.12;1441855;91;20418;-86
2022/07/18 07:40:03;;;;;;;;;;;;;;;23.14;35.93;101334.09;1429620;91;20454;-86
2022/07/18 07:42:29;;;;;;;;;;;;;;;23.22;37.24;101333.89;1426510;91;20886;-87
2022/07/18 07:44:59;;;;;;;;;;;;;;;23.30;35.72;101332.83;1428194;91;20313;-87
2022/07/18 07:47:25;;;;;;;;;;;;;;;23.27;36.54;101336.77;1428424;91;20439;-87
2022/07/18 07:49:51;;;;;;;;;;;;;;;23.35;37.23;101333.03;1428665;91;20388;-87
2022/07/18 07:52:18;;;;;;;;;;;;;;;23.50;37.57;101340.89;1427395;90;20321;-86
2022/07/18 07:54:47;;;;;;;;;;;;;;;23.63;37.43;101340.35;1425379;91;20990;-87
2022/07/18 07:57:16;;;;;;;;;;;;;;;23.79;36.77;101336.90;1427934;91;20291;-86
2022/07/18 07:59:42;;;;;;;;;;;;;;;23.91;36.16;101337.06;1429082;91;20335;-88
2022/07/18 08:02:08;;;;;;;;;;;;;;;24.04;36.23;101339.73;1428896;91;20313;-87
2022/07/18 08:04:34;;;;;;;;;;;;;;;24.05;34.73;101344.08;1426012;91;20410;-84
2022/07/18 08:07:00;;;;;;;;;;;;;;;24.06;35.03;101336.30;1420809;91;20637;-87
2022/07/18 08:09:26;;;;;;;;;;;;;;;24.12;34.73;101336.78;1426784;91;20432;-87
2022/07/18 08:11:52;;;;;;;;;;;;;;;24.23;34.94;101339.34;1427858;91;20305;-87
2022/07/18 08:14:19;;;;;;;;;;;;;;;24.26;33.79;101337.55;1424181;91;20357;-87
2022/07/18 08:16:45;;;;;;;;;;;;;;;24.31;34.67;101326.89;1430564;91;20435;-87
2022/07/18 08:19:11;;;;;;;;;;;;;;;24.42;33.49;101336.20;1427853;91;20432;-88
2022/07/18 08:21:36;;;;;;;;;;;;;;;24.51;34.15;101330.86;1428988;91;20291;-87
2022/07/18 08:24:09;;;;;;;;;;;;;;;24.68;34.79;101337.41;1428786;91;20305;-91
2022/07/18 08:26:38;;;;;;;;;;;;;;;24.72;31.45;101331.87;1426354;91;20381;-83
2022/07/18 08:29:05;;;;;;;;;;;;;;;24.68;33.32;101333.34;1421251;91;20337;-86
2022/07/18 08:31:33;;;;;;;;;;;;;;;24.72;33.70;101326.46;1393428;91;20387;-86
2022/07/18 08:33:59;;;;;;;;;;;;;;;24.80;32.63;101332.14;1427535;91;20314;-86
2022/07/18 08:36:27;;;;;;;;;;;;;;;24.92;33.08;101328.20;1427519;91;20410;-87
2022/07/18 08:38:53;;;;;;;;;;;;;;;25.01;31.93;101330.92;1427387;91;20343;-87
2022/07/18 08:41:20;;;;;;;;;;;;;;;24.99;30.71;101327.59;1426162;91;20328;-83
2022/07/18 08:43:48;;;;;;;;;;;;;;;25.08;32.65;101327.62;1426156;91;20375;-83
2022/07/18 08:46:14;;;;;;;;;;;;;;;25.12;32.10;101331.56;1427878;91;20439;-84
2022/07/18 08:48:48;;;;;;;;;;;;;;;25.25;32.36;101330.62;1427896;91;20864;-84
2022/07/18 08:51:15;;;;;;;;;;;;;;;25.33;31.95;101326.81;1424297;91;21657;-84
2022/07/18 08:53:41;;;;;;;;;;;;;;;25.42;30.45;101324.92;1430219;91;20425;-84
2022/07/18 08:56:07;;;;;;;;;;;;;;;25.59;30.70;101322.45;1428505;91;20425;-84
2022/07/18 08:58:39;;;;;;;;;;;;;;;25.55;30.20;101323.12;1429793;91;20341;-84
2022/07/18 09:01:06;;;;;;;;;;;;;;;25.38;30.60;101321.55;1433572;91;20381;-84
2022/07/18 09:03:32;;;;;;;;;;;;;;;25.23;29.65;101319.70;1430915;91;20298;-83
2022/07/18 09:06:09;;;;;;;;;;;;;;;25.32;29.75;101325.13;1431128;91;20328;-84
2022/07/18 09:08:35;;;;;;;;;;;;;;;25.17;28.96;101324.13;1424212;91;20306;-84
2022/07/18 09:11:02;;;;;;;;;;;;;;;25.23;30.52;101319.17;1430037;91;20439;-83
2022/07/18 09:13:38;;;;;;;;;;;;;;;25.42;30.54;101320.86;1429476;91;20343;-84
2022/07/18 09:16:06;;;;;;;;;;;;;;;25.62;30.32;101313.88;1415983;91;20867;-84
2022/07/18 09:18:38;;;;;;;;;;;;;;;25.89;31.09;101323.07;1417229;92;20408;-83
2022/07/18 09:21:08;;;;;;;;;;;;;;;25.96;29.43;101312.98;1422906;92;20281;-83
2022/07/18 09:23:36;;;;;;;;;;;;;;;26.17;30.43;101317.61;1413496;92;20266;-83
2022/07/18 09:26:03;;;;;;;;;;;;;;;26.34;30.43;101315.91;1391163;94;20445;-83
2022/07/18 09:28:31;;;;;;;;;;;;;;;26.48;29.10;101318.73;1374394;94;20410;-83
2022/07/18 09:30:57;;;;;;;;;;;;;;;26.33;27.98;101313.73;1375715;95;20309;-83
2022/07/18 09:33:23;;;;;;;;;;;;;;;26.51;29.80;101307.97;1361851;95;20346;-83
2022/07/18 09:35:52;;;;;;;;;;;;;;;26.68;28.21;101304.06;1377884;95;20397;-84
2022/07/18 09:38:20;;;;;;;;;;;;;;;26.92;28.38;101308.98;1378387;95;20272;-84
2022/07/18 09:40:51;;;;;;;;;;;;;;;27.06;29.16;101300.08;1374419;94;20368;-84
2022/07/18 09:43:23;;;;;;;;;;;;;;;27.12;28.20;101299.13;1363202;95;20368;-84
2022/07/18 09:45:54;;;;;;;;;;;;;;;27.26;27.74;101303.30;1385331;95;20235;-83
2022/07/18 09:48:21;;;;;;;;;;;;;;;27.27;27.98;101302.22;1362479;95;20873;-84
2022/07/18 09:50:55;;;;;;;;;;;;;;;27.05;27.29;101296.54;1369697;95;20405;-82
2022/07/18 09:53:24;;;;;;;;;;;;;;;27.15;27.80;101294.08;1349615;95;20330;-84
2022/07/18 09:55:56;;;;;;;;;;;;;;;27.35;28.17;101290.98;1360302;96;20252;-84
2022/07/18 09:58:25;;;;;;;;;;;;;;;27.23;27.84;101292.90;1367862;95;20796;-84
2022/07/18 10:00:52;;;;;;;;;;;;;;;27.53;26.85;101297.34;1370996;95;20469;-84
2022/07/18 10:03:19;;;;;;;;;;;;;;;27.59;26.91;101289.58;1370057;95;20983;-84
2022/07/18 10:05:47;;;;;;;;;;;;;;;27.47;26.44;101282.81;1357851;96;20315;-84
2022/07/18 10:08:16;;;;;;;;;;;;;;;27.52;27.15;101282.11;1368785;95;20444;-80
2022/07/18 10:10:43;;;;;;;;;;;;;;;27.61;27.75;101279.30;1363937;95;20377;-80
2022/07/18 10:13:10;;;;;;;;;;;;;;;27.35;27.25;101285.55;1382782;93;20406;-80
2022/07/18 10:15:38;;;;;;;;;;;;;;;27.18;27.84;101287.34;1397579;93;20822;-87
2022/07/18 10:18:06;;;;;;;;;;;;;;;27.08;26.99;101285.20;1380701;93;20339;-87
2022/07/18 10:20:44;;;;;;;;;;;;;;;26.84;27.45;101285.70;1400574;93;20299;-86
2022/07/18 10:23:25;;;;;;;;;;;;;;;26.86;27.78;101284.95;1392363;94;20865;-86
2022/07/18 10:26:13;;;;;;;;;;;;;;;26.78;27.63;101285.29;1394630;94;20271;-86
2022/07/18 10:28:59;;;;;;;;;;;;;;;26.66;28.08;101289.88;1382632;93;20370;-86
2022/07/18 10:31:33;;;;;;;;;;;;;;;26.73;27.54;101286.55;1385783;94;20248;-86
2022/07/18 10:34:11;;;;;;;;;;;;;;;26.72;27.83;101284.34;1390843;93;20910;-86
2022/07/18 10:36:54;;;;;;;;;;;;;;;26.70;26.44;101282.91;1406296;93;20952;-86
2022/07/18 10:39:23;;;;;;;;;;;;;;;26.71;27.62;101285.94;1409396;93;20310;-86
2022/07/18 10:41:57;;;;;;;;;;;;;;;26.69;27.40;101286.16;1392773;93;20448;-83
2022/07/18 10:44:29;;;;;;;;;;;;;;;26.90;26.84;101278.50;1396269;93;20337;-84
2022/07/18 10:47:05;;;;;;;;;;;;;;;27.14;26.80;101276.64;1384254;93;20299;-84
2022/07/18 10:49:56;;;;;;;;;;;;;;;27.38;27.55;101268.77;1403617;93;20917;-84
2022/07/18 10:52:36;;;;;;;;;;;;;;;27.57;27.06;101260.47;1404054;92;20358;-81
2022/07/18 10:55:05;;;;;;;;;;;;;;;27.22;25.60;101266.27;1403068;93;20287;-82
2022/07/18 10:57:36;;;;;;;;;;;;;;;27.35;26.76;101257.55;1400505;93;20384;-81
2022/07/18 11:00:11;;;;;;;;;;;;;;;27.31;25.88;101254.50;1394883;93;20989;-81
2022/07/18 11:02:46;;;;;;;;;;;;;;;27.54;27.05;101256.34;1394532;93;20499;-82
2022/07/18 11:05:31;;;;;;;;;;;;;;;27.79;27.66;101256.03;1395918;93;20456;-81
2022/07/18 11:08:13;;;;;;;;;;;;;;;28.10;25.88;101253.90;1387599;92;20298;-82
2022/07/18 11:10:47;;;;;;;;;;;;;;;28.30;24.05;101247.45;1383335;94;20320;-81
2022/07/18 11:13:28;;;;;;;;;;;;;;;28.53;26.07;101247.05;1404799;93;20313;-83
2022/07/18 11:16:13;;;;;;;;;;;;;;;28.68;24.79;101242.38;1395139;93;20320;-82
2022/07/18 11:18:43;;;;;;;;;;;;;;;28.82;25.65;101234.70;1393255;92;20431;-82
2022/07/18 11:21:18;;;;;;;;;;;;;;;28.95;26.01;101235.72;1394390;93;20402;-83
2022/07/18 11:23:52;;;;;;;;;;;;;;;29.01;25.76;101236.90;1396844;93;20953;-82
2022/07/18 11:26:21;;;;;;;;;;;;;;;28.92;24.16;101223.97;1403496;93;20337;-84
2022/07/18 11:28:50;;;;;;;;;;;;;;;28.64;23.59;101220.81;1391602;93;20390;-84
2022/07/18 11:31:16;;;;;;;;;;;;;;;28.51;24.64;101221.96;1397677;93;20977;-83
2022/07/18 11:33:45;;;;;;;;;;;;;;;28.57;23.76;101218.27;1398850;93;20328;-83
2022/07/18 11:36:14;;;;;;;;;;;;;;;28.43;24.49;101219.68;1398630;92;20353;-84
2022/07/18 11:38:53;;;;;;;;;;;;;;;28.56;26.17;101216.60;1393956;93;20323;-84
2022/07/18 11:41:20;;;;;;;;;;;;;;;28.58;24.23;101209.56;1397657;93;20465;-84
2022/07/18 11:43:47;;;;;;;;;;;;;;;28.45;24.96;101212.06;1399565;93;20255;-84
2022/07/18 11:46:16;;;;;;;;;;;;;;;28.39;24.83;101208.41;1404846;93;20426;-85
2022/07/18 11:48:48;;;;;;;;;;;;;;;28.44;25.32;101212.61;1399159;92;20391;-87
2022/07/18 11:51:16;;;;;;;;;;;;;;;28.43;24.46;101211.52;1400330;93;20494;-85
2022/07/18 11:53:47;;;;;;;;;;;;;;;28.37;24.18;101205.64;1406242;93;20327;-91
2022/07/18 11:56:14;;;;;;;;;;;;;;;28.66;25.38;101200.44;1396432;94;20320;-87
2022/07/18 11:58:41;;;;;;;;;;;;;;;28.99;26.43;101197.34;1385885;94;20850;-89
2022/07/18 12:01:07;;;;;;;;;;;;;;;29.18;24.49;101196.55;1378433;93;20278;-87
2022/07/18 12:03:35;;;;;;;;;;;;;;;29.31;24.42;101192.06;1386132;93;20879;-83
2022/07/18 12:06:13;;;;;;;;;;;;;;;29.43;24.14;101196.87;1383692;94;21115;-83
2022/07/18 12:08:42;;;;;;;;;;;;;;;29.51;24.06;101199.66;1391012;94;20306;-85
2022/07/18 12:11:32;;;;;;;;;;;;;;;29.39;23.67;101197.08;1395369;94;20298;-84
2022/07/18 12:14:11;;;;;;;;;;;;;;;29.36;24.35;101192.68;1391230;94;20857;-84
2022/07/18 12:16:49;;;;;;;;;;;;;;;29.41;24.02;101184.56;1392202;94;20261;-83
2022/07/18 12:19:18;;;;;;;;;;;;;;;29.31;22.25;101181.70;1407320;93;20284;-84
2022/07/18 12:21:56;;;;;;;;;;;;;;;29.49;24.44;101178.63;1405688;93;20565;-83
2022/07/18 12:24:49;;;;;;;;;;;;;;;29.64;23.61;101172.03;1408288;93;20417;-84
2022/07/18 12:27:25;;;;;;;;;;;;;;;29.71;23.77;101166.91;1408520;93;20408;-84
2022/07/18 12:30:04;;;;;;;;;;;;;;;29.56;22.43;101165.64;1407614;93;20393;-83
2022/07/18 12:32:51;;;;;;;;;;;;;;;29.75;23.63;101163.94;1407703;93;20457;-84
2022/07/18 12:35:31;;;;;;;;;;;;;;;29.74;23.21;101158.21;1404390;93;20294;-84
2022/07/18 12:37:59;;;;;;;;;;;;;;;29.88;23.73;101147.98;1399149;93;20428;-84
2022/07/18 12:40:29;;;;;;;;;;;;;;;29.95;23.00;101148.30;1402278;93;20338;-85
2022/07/18 12:43:07;;;;;;;;;;;;;;;30.05;22.98;101151.95;1399876;93;20369;-84
2022/07/18 12:45:33;;;;;;;;;;;;;;;30.08;23.97;101150.06;1407513;93;20398;-84